Time;durP1;ratioP1;P1;durP2;ratioP2;P2;SDS_P1;SDS_P2;PMS_P1;PMS_P2;Temp;Humidity;BMP_temperature;BMP_pressure;BME280_temperature;BME280_humidity;BME280_pressure;Samples;Min_cycle;Max_cycle;Signal;HPM_P1;HPM_P2
2021/04/24 00:01:15;;;;;;;;;;;22.30;26.40;;;;;;491813;240;1541;-73
2021/04/24 00:03:16;;;;;;;;;;;22.20;26.30;;;;;;491811;240;2196;-73
2021/04/24 00:05:18;;;;;;;;;;;22.20;26.40;;;;;;491806;240;1014;-72
2021/04/24 00:07:19;;;;;;;;;;;22.20;26.40;;;;;;491863;240;963;-73
2021/04/24 00:09:20;;;;;;;;;;;22.20;26.40;;;;;;491893;240;971;-72
2021/04/24 00:11:22;;;;;;;;;;;22.20;26.40;;;;;;491867;240;1284;-72
2021/04/24 00:13:23;;;;;;;;;;;22.20;26.50;;;;;;491884;240;1013;-72
2021/04/24 00:15:24;;;;;;;;;;;22.20;26.40;;;;;;491837;240;962;-73
2021/04/24 00:17:25;;;;;;;;;;;22.10;26.40;;;;;;491808;240;1009;-73
2021/04/24 00:19:27;;;;;;;;;;;22.20;26.50;;;;;;491890;240;1019;-73
2021/04/24 00:21:28;;;;;;;;;;;22.20;26.50;;;;;;491894;240;1042;-72
2021/04/24 00:23:29;;;;;;;;;;;22.20;26.40;;;;;;491862;240;2142;-72
2021/04/24 00:25:31;;;;;;;;;;;22.10;26.50;;;;;;491880;240;1172;-72
2021/04/24 00:27:32;;;;;;;;;;;22.20;26.50;;;;;;491970;240;931;-73
2021/04/24 00:29:34;;;;;;;;;;;22.10;26.50;;;;;;491872;240;951;-72
2021/04/24 00:31:35;;;;;;;;;;;22.10;26.60;;;;;;491951;240;1102;-72
2021/04/24 00:33:36;;;;;;;;;;;22.10;26.60;;;;;;491899;240;971;-72
2021/04/24 00:35:38;;;;;;;;;;;22.00;26.60;;;;;;491889;240;1089;-72
2021/04/24 00:37:39;;;;;;;;;;;22.00;26.60;;;;;;491874;240;1074;-72
2021/04/24 00:39:40;;;;;;;;;;;21.90;26.70;;;;;;491898;240;927;-73
2021/04/24 00:41:42;;;;;;;;;;;22.00;26.70;;;;;;491822;240;1196;-72
2021/04/24 00:43:43;;;;;;;;;;;21.90;26.70;;;;;;491799;240;2104;-72
2021/04/24 00:45:44;;;;;;;;;;;21.90;26.70;;;;;;491831;240;952;-72
2021/04/24 00:47:45;;;;;;;;;;;21.90;26.80;;;;;;491867;240;990;-72
2021/04/24 00:49:47;;;;;;;;;;;21.90;26.70;;;;;;491904;240;1048;-73
2021/04/24 00:51:48;;;;;;;;;;;22.00;26.70;;;;;;491851;240;1170;-73
2021/04/24 00:53:49;;;;;;;;;;;22.00;26.70;;;;;;491834;240;978;-73
2021/04/24 00:55:50;;;;;;;;;;;22.00;26.70;;;;;;491893;240;1272;-72
2021/04/24 00:57:52;;;;;;;;;;;22.00;26.70;;;;;;491962;240;1059;-73
2021/04/24 00:59:53;;;;;;;;;;;21.90;26.80;;;;;;491863;240;968;-72
2021/04/24 01:01:54;;;;;;;;;;;21.90;26.80;;;;;;491908;240;935;-72
2021/04/24 01:03:56;;;;;;;;;;;21.90;26.80;;;;;;491798;240;2195;-72
2021/04/24 01:05:57;;;;;;;;;;;21.90;26.80;;;;;;491828;240;990;-72
2021/04/24 01:07:58;;;;;;;;;;;21.80;26.80;;;;;;491982;240;1016;-72
2021/04/24 01:09:59;;;;;;;;;;;21.80;26.90;;;;;;491836;240;1060;-72
2021/04/24 01:12:01;;;;;;;;;;;21.80;27.00;;;;;;491911;240;1200;-72
2021/04/24 01:14:02;;;;;;;;;;;21.70;26.90;;;;;;491890;240;976;-72
2021/04/24 01:16:03;;;;;;;;;;;21.70;26.90;;;;;;491883;240;1101;-73
2021/04/24 01:18:05;;;;;;;;;;;21.80;26.90;;;;;;491862;240;956;-72
2021/04/24 01:20:06;;;;;;;;;;;21.80;26.90;;;;;;491875;240;965;-72
2021/04/24 01:22:07;;;;;;;;;;;21.70;26.90;;;;;;491729;240;1133;-72
2021/04/24 01:24:08;;;;;;;;;;;21.80;26.90;;;;;;491837;240;2128;-72
2021/04/24 01:26:10;;;;;;;;;;;21.70;26.90;;;;;;491783;240;1272;-72
2021/04/24 01:28:11;;;;;;;;;;;21.70;26.90;;;;;;491768;240;1060;-72
2021/04/24 01:30:12;;;;;;;;;;;21.80;26.90;;;;;;491859;240;926;-72
2021/04/24 01:32:14;;;;;;;;;;;21.70;26.90;;;;;;491655;240;1098;-72
2021/04/24 01:34:15;;;;;;;;;;;21.70;26.90;;;;;;491755;240;1043;-72
2021/04/24 01:36:16;;;;;;;;;;;21.70;26.90;;;;;;491713;240;1176;-72
2021/04/24 01:38:17;;;;;;;;;;;21.80;26.90;;;;;;491947;240;1076;-72
2021/04/24 01:40:19;;;;;;;;;;;21.80;26.80;;;;;;491851;240;941;-72
2021/04/24 01:42:20;;;;;;;;;;;21.80;26.80;;;;;;491742;240;1117;-72
2021/04/24 01:44:21;;;;;;;;;;;21.70;26.90;;;;;;491798;240;2113;-72
2021/04/24 01:46:23;;;;;;;;;;;21.70;26.90;;;;;;491774;240;1236;-72
2021/04/24 01:48:24;;;;;;;;;;;21.70;26.90;;;;;;491900;240;1037;-72
2021/04/24 01:50:26;;;;;;;;;;;21.60;26.90;;;;;;491791;240;959;-73
2021/04/24 01:52:27;;;;;;;;;;;21.70;27.00;;;;;;491823;240;953;-72
2021/04/24 01:54:28;;;;;;;;;;;21.70;26.90;;;;;;491770;240;962;-72
2021/04/24 01:56:29;;;;;;;;;;;21.70;27.00;;;;;;491878;240;1316;-72
2021/04/24 01:58:31;;;;;;;;;;;21.60;27.00;;;;;;491906;240;959;-73
2021/04/24 02:00:32;;;;;;;;;;;21.70;26.90;;;;;;491909;240;913;-73
2021/04/24 02:02:33;;;;;;;;;;;21.60;26.90;;;;;;491891;240;2144;-72
2021/04/24 02:04:35;;;;;;;;;;;21.70;27.00;;;;;;491835;240;1043;-73
2021/04/24 02:06:36;;;;;;;;;;;21.60;27.00;;;;;;491875;240;938;-73
2021/04/24 02:08:37;;;;;;;;;;;21.60;27.00;;;;;;491944;240;928;-73
2021/04/24 02:10:38;;;;;;;;;;;21.60;27.00;;;;;;491840;240;1074;-72
2021/04/24 02:12:40;;;;;;;;;;;21.70;26.90;;;;;;491884;240;1160;-73
2021/04/24 02:14:41;;;;;;;;;;;21.70;27.00;;;;;;491860;240;957;-72
2021/04/24 02:16:42;;;;;;;;;;;21.70;27.00;;;;;;491863;240;1060;-72
2021/04/24 02:18:44;;;;;;;;;;;21.70;26.90;;;;;;491857;240;988;-73
2021/04/24 02:20:45;;;;;;;;;;;21.70;26.90;;;;;;491885;240;1012;-73
2021/04/24 02:22:46;;;;;;;;;;;21.70;26.90;;;;;;491882;240;2203;-72
2021/04/24 02:24:47;;;;;;;;;;;21.60;27.00;;;;;;491862;240;936;-72
2021/04/24 02:26:49;;;;;;;;;;;21.60;27.00;;;;;;491872;240;1195;-73
2021/04/24 02:28:50;;;;;;;;;;;21.60;27.10;;;;;;491808;240;962;-73
2021/04/24 02:30:51;;;;;;;;;;;21.50;27.10;;;;;;491810;240;1060;-72
2021/04/24 02:32:53;;;;;;;;;;;21.50;27.10;;;;;;491865;240;1032;-72
2021/04/24 02:34:54;;;;;;;;;;;21.60;27.10;;;;;;491813;240;1051;-72
2021/04/24 02:36:55;;;;;;;;;;;21.60;27.10;;;;;;491861;240;1099;-73
2021/04/24 02:38:56;;;;;;;;;;;21.70;27.10;;;;;;491896;240;1010;-72
2021/04/24 02:40:58;;;;;;;;;;;21.60;27.10;;;;;;491849;240;931;-73
2021/04/24 02:42:59;;;;;;;;;;;21.70;27.10;;;;;;491849;240;2184;-73
2021/04/24 02:45:05;;;;;;;;;;;21.70;27.10;;;;;;491871;240;920;-73
2021/04/24 02:47:03;;;;;;;;;;;21.70;27.10;;;;;;491883;240;1370;-72
2021/04/24 02:49:04;;;;;;;;;;;21.60;27.10;;;;;;491811;240;1032;-72
2021/04/24 02:51:06;;;;;;;;;;;21.60;27.10;;;;;;491905;240;935;-72
2021/04/24 02:53:07;;;;;;;;;;;21.60;27.10;;;;;;491841;240;1105;-72
2021/04/24 02:55:08;;;;;;;;;;;21.60;27.10;;;;;;491786;240;1148;-72
2021/04/24 02:57:09;;;;;;;;;;;21.60;27.10;;;;;;491825;239;1286;-73
2021/04/24 02:59:11;;;;;;;;;;;21.60;27.10;;;;;;491790;240;936;-73
2021/04/24 03:01:12;;;;;;;;;;;21.60;27.10;;;;;;491857;240;1118;-72
2021/04/24 03:03:13;;;;;;;;;;;21.60;27.10;;;;;;491854;240;2148;-73
2021/04/24 03:05:15;;;;;;;;;;;21.70;27.10;;;;;;491788;240;985;-73
2021/04/24 03:07:16;;;;;;;;;;;21.60;27.10;;;;;;491883;240;1052;-73
2021/04/24 03:09:17;;;;;;;;;;;21.50;27.10;;;;;;491922;240;924;-73
2021/04/24 03:11:18;;;;;;;;;;;21.60;27.20;;;;;;491817;240;1035;-73
2021/04/24 03:13:20;;;;;;;;;;;21.60;27.20;;;;;;492003;240;1209;-72
2021/04/24 03:15:21;;;;;;;;;;;21.60;27.20;;;;;;491886;240;946;-72
2021/04/24 03:17:22;;;;;;;;;;;21.60;27.20;;;;;;491830;240;1182;-72
2021/04/24 03:19:23;;;;;;;;;;;21.60;27.10;;;;;;491826;240;1052;-73
2021/04/24 03:21:25;;;;;;;;;;;21.60;27.10;;;;;;491874;240;920;-72
2021/04/24 03:23:26;;;;;;;;;;;21.60;27.20;;;;;;491831;240;2175;-73
2021/04/24 03:25:27;;;;;;;;;;;21.60;27.10;;;;;;491812;240;1125;-73
2021/04/24 03:27:29;;;;;;;;;;;21.60;27.20;;;;;;491860;240;1180;-73
2021/04/24 03:29:30;;;;;;;;;;;21.60;27.20;;;;;;491842;240;1165;-73
2021/04/24 03:31:31;;;;;;;;;;;21.60;27.20;;;;;;491864;240;1207;-72
2021/04/24 03:33:33;;;;;;;;;;;21.60;27.10;;;;;;491947;240;1095;-72
2021/04/24 03:35:34;;;;;;;;;;;21.70;27.10;;;;;;491898;240;1188;-73
2021/04/24 03:37:35;;;;;;;;;;;21.60;27.10;;;;;;491837;240;1181;-73
2021/04/24 03:39:36;;;;;;;;;;;21.60;27.10;;;;;;491831;240;1043;-72
2021/04/24 03:41:38;;;;;;;;;;;21.60;27.10;;;;;;491919;240;1259;-72
2021/04/24 03:43:39;;;;;;;;;;;21.50;27.20;;;;;;491924;240;2184;-72
2021/04/24 03:45:40;;;;;;;;;;;21.60;27.20;;;;;;491872;240;1289;-73
2021/04/24 03:47:41;;;;;;;;;;;21.60;27.20;;;;;;491904;240;1229;-73
2021/04/24 03:49:43;;;;;;;;;;;21.50;27.20;;;;;;491869;240;965;-73
2021/04/24 03:51:44;;;;;;;;;;;21.60;27.20;;;;;;491799;240;1216;-73
2021/04/24 03:53:45;;;;;;;;;;;21.60;27.20;;;;;;491772;240;1015;-72
2021/04/24 03:55:47;;;;;;;;;;;21.60;27.10;;;;;;491796;240;984;-73
2021/04/24 03:57:48;;;;;;;;;;;21.60;27.20;;;;;;491873;240;1069;-72
2021/04/24 03:59:49;;;;;;;;;;;21.60;27.10;;;;;;491753;240;960;-72
2021/04/24 04:01:50;;;;;;;;;;;21.60;27.20;;;;;;491850;240;988;-73
2021/04/24 04:03:52;;;;;;;;;;;21.50;27.20;;;;;;491863;240;2184;-72
2021/04/24 04:05:53;;;;;;;;;;;21.50;27.20;;;;;;491767;240;1137;-73
2021/04/24 04:07:54;;;;;;;;;;;21.50;27.20;;;;;;491929;240;994;-72
2021/04/24 04:09:56;;;;;;;;;;;21.60;27.20;;;;;;491899;240;953;-72
2021/04/24 04:11:57;;;;;;;;;;;21.60;27.20;;;;;;491894;240;1097;-72
2021/04/24 04:13:59;;;;;;;;;;;21.50;27.20;;;;;;491862;240;1318;-73
2021/04/24 04:16:00;;;;;;;;;;;21.50;27.20;;;;;;491817;240;1096;-73
2021/04/24 04:18:01;;;;;;;;;;;21.50;27.20;;;;;;491903;240;1090;-72
2021/04/24 04:20:02;;;;;;;;;;;21.50;27.30;;;;;;491788;240;1000;-72
2021/04/24 04:22:04;;;;;;;;;;;21.50;27.10;;;;;;491797;240;1092;-72
2021/04/24 04:24:05;;;;;;;;;;;21.40;27.30;;;;;;491769;240;2128;-72
2021/04/24 04:26:06;;;;;;;;;;;21.40;27.30;;;;;;491839;240;1251;-72
2021/04/24 04:28:07;;;;;;;;;;;21.40;27.30;;;;;;491817;240;992;-72
2021/04/24 04:30:09;;;;;;;;;;;21.30;27.40;;;;;;491859;240;1180;-72
2021/04/24 04:32:10;;;;;;;;;;;21.30;27.50;;;;;;491733;240;1111;-72
2021/04/24 04:34:11;;;;;;;;;;;21.20;27.40;;;;;;491902;240;1083;-72
2021/04/24 04:36:13;;;;;;;;;;;21.30;27.40;;;;;;491738;240;1266;-72
2021/04/24 04:38:14;;;;;;;;;;;21.30;27.40;;;;;;491821;240;1075;-72
2021/04/24 04:40:16;;;;;;;;;;;21.30;27.40;;;;;;491785;240;1130;-72
2021/04/24 04:42:18;;;;;;;;;;;21.30;27.40;;;;;;491797;240;1228;-72
2021/04/24 04:44:19;;;;;;;;;;;21.30;27.50;;;;;;491846;240;2196;-73
2021/04/24 04:46:20;;;;;;;;;;;21.20;27.50;;;;;;491698;240;1211;-73
2021/04/24 04:48:22;;;;;;;;;;;21.20;27.50;;;;;;491847;240;1028;-73
2021/04/24 04:50:23;;;;;;;;;;;21.20;27.40;;;;;;491851;240;929;-72
2021/04/24 04:52:24;;;;;;;;;;;21.30;27.50;;;;;;491791;240;1220;-72
2021/04/24 04:54:25;;;;;;;;;;;21.20;27.40;;;;;;491813;240;1097;-72
2021/04/24 04:56:27;;;;;;;;;;;21.20;27.50;;;;;;491806;240;1231;-72
2021/04/24 04:58:28;;;;;;;;;;;21.30;27.50;;;;;;491895;240;1078;-72
2021/04/24 05:00:29;;;;;;;;;;;21.20;27.50;;;;;;491823;240;1147;-72
2021/04/24 05:02:31;;;;;;;;;;;21.20;27.50;;;;;;491785;240;1104;-72
2021/04/24 05:04:32;;;;;;;;;;;21.30;27.50;;;;;;491800;240;2133;-72
2021/04/24 05:06:33;;;;;;;;;;;21.20;27.50;;;;;;491827;240;983;-73
2021/04/24 05:08:36;;;;;;;;;;;21.30;27.60;;;;;;491844;240;981;-72
2021/04/24 05:10:36;;;;;;;;;;;21.20;27.50;;;;;;491766;240;1440;-72
2021/04/24 05:12:38;;;;;;;;;;;21.20;27.60;;;;;;491819;240;952;-72
2021/04/24 05:14:39;;;;;;;;;;;21.20;27.60;;;;;;491847;240;1149;-72
2021/04/24 05:16:40;;;;;;;;;;;21.10;27.70;;;;;;491782;240;1081;-72
2021/04/24 05:18:42;;;;;;;;;;;21.20;27.70;;;;;;491911;240;927;-72
2021/04/24 05:20:43;;;;;;;;;;;21.20;27.60;;;;;;491754;240;955;-72
2021/04/24 05:22:44;;;;;;;;;;;21.30;27.60;;;;;;491727;240;1085;-72
2021/04/24 05:24:45;;;;;;;;;;;21.20;27.60;;;;;;491858;240;2143;-72
2021/04/24 05:26:47;;;;;;;;;;;21.20;27.70;;;;;;491694;240;1089;-72
2021/04/24 05:28:48;;;;;;;;;;;21.20;27.70;;;;;;491842;240;950;-72
2021/04/24 05:30:49;;;;;;;;;;;21.30;27.60;;;;;;491749;240;1313;-72
2021/04/24 05:32:51;;;;;;;;;;;21.30;27.60;;;;;;491773;240;1207;-73
2021/04/24 05:34:52;;;;;;;;;;;21.40;27.60;;;;;;491663;240;1104;-73
2021/04/24 05:36:54;;;;;;;;;;;21.40;27.50;;;;;;491691;240;1203;-73
2021/04/24 05:38:54;;;;;;;;;;;21.50;27.50;;;;;;491821;241;1454;-72
2021/04/24 05:40:56;;;;;;;;;;;21.60;27.50;;;;;;491725;240;1223;-72
2021/04/24 05:42:57;;;;;;;;;;;21.50;27.50;;;;;;491849;240;1083;-73
2021/04/24 05:44:58;;;;;;;;;;;21.50;27.50;;;;;;491802;240;2176;-73
2021/04/24 05:47:00;;;;;;;;;;;21.60;27.50;;;;;;491777;240;1097;-73
2021/04/24 05:49:01;;;;;;;;;;;21.60;27.50;;;;;;491798;240;940;-73
2021/04/24 05:51:02;;;;;;;;;;;21.50;27.60;;;;;;491685;240;1243;-73
2021/04/24 05:53:03;;;;;;;;;;;21.40;27.70;;;;;;491854;240;916;-72
2021/04/24 05:55:05;;;;;;;;;;;21.40;27.70;;;;;;491757;240;941;-72
2021/04/24 05:57:06;;;;;;;;;;;21.40;27.70;;;;;;491783;240;1237;-72
2021/04/24 05:59:07;;;;;;;;;;;21.40;27.70;;;;;;491866;240;1098;-72
2021/04/24 06:01:08;;;;;;;;;;;21.30;27.70;;;;;;491714;240;1197;-72
2021/04/24 06:03:10;;;;;;;;;;;21.40;27.70;;;;;;491725;240;1050;-73
2021/04/24 06:05:11;;;;;;;;;;;21.40;27.80;;;;;;491675;240;2184;-72
2021/04/24 06:07:12;;;;;;;;;;;21.40;27.80;;;;;;491638;240;1127;-72
2021/04/24 06:09:14;;;;;;;;;;;21.40;27.70;;;;;;491828;240;948;-72
2021/04/24 06:11:15;;;;;;;;;;;21.40;27.70;;;;;;491688;240;1228;-73
2021/04/24 06:13:16;;;;;;;;;;;21.50;27.70;;;;;;491730;240;1061;-73
2021/04/24 06:15:18;;;;;;;;;;;21.50;27.70;;;;;;491686;240;1187;-73
2021/04/24 06:17:19;;;;;;;;;;;21.60;27.70;;;;;;491619;240;1175;-73
2021/04/24 06:19:20;;;;;;;;;;;21.60;27.60;;;;;;491802;240;1193;-73
2021/04/24 06:21:21;;;;;;;;;;;21.70;27.60;;;;;;491720;240;1285;-73
2021/04/24 06:23:23;;;;;;;;;;;21.70;27.50;;;;;;491807;240;914;-73
2021/04/24 06:25:24;;;;;;;;;;;21.80;27.50;;;;;;491803;240;2187;-73
2021/04/24 06:27:25;;;;;;;;;;;21.80;27.40;;;;;;491767;240;1031;-73
2021/04/24 06:29:26;;;;;;;;;;;21.80;27.50;;;;;;491747;240;1061;-73
2021/04/24 06:31:28;;;;;;;;;;;21.80;27.50;;;;;;491654;240;1214;-73
2021/04/24 06:33:29;;;;;;;;;;;21.90;27.50;;;;;;491838;240;958;-73
2021/04/24 06:35:30;;;;;;;;;;;21.90;27.50;;;;;;491686;240;1437;-73
2021/04/24 06:37:31;;;;;;;;;;;21.90;27.50;;;;;;491744;240;1164;-73
2021/04/24 06:39:33;;;;;;;;;;;21.90;27.50;;;;;;491773;240;1004;-73
2021/04/24 06:41:34;;;;;;;;;;;22.00;27.50;;;;;;491778;240;1273;-73
2021/04/24 06:43:35;;;;;;;;;;;22.00;27.50;;;;;;491802;240;928;-73
2021/04/24 06:45:37;;;;;;;;;;;21.90;27.50;;;;;;491744;240;2248;-73
2021/04/24 06:47:38;;;;;;;;;;;22.00;27.50;;;;;;491810;240;1169;-73
2021/04/24 06:49:39;;;;;;;;;;;22.00;27.50;;;;;;491737;240;1045;-73
2021/04/24 06:51:40;;;;;;;;;;;22.00;27.50;;;;;;491803;240;976;-73
2021/04/24 06:53:42;;;;;;;;;;;22.00;27.50;;;;;;491829;240;1299;-72
2021/04/24 06:55:43;;;;;;;;;;;22.00;27.50;;;;;;491891;240;1088;-72
2021/04/24 06:57:44;;;;;;;;;;;22.00;27.40;;;;;;491804;240;1024;-72
2021/04/24 06:59:46;;;;;;;;;;;22.10;27.50;;;;;;491827;240;955;-72
2021/04/24 07:01:47;;;;;;;;;;;22.10;27.40;;;;;;491873;240;1547;-72
2021/04/24 07:03:48;;;;;;;;;;;22.10;27.50;;;;;;491933;240;1017;-72
2021/04/24 07:05:49;;;;;;;;;;;22.20;27.40;;;;;;491815;240;2175;-72
2021/04/24 07:07:51;;;;;;;;;;;22.10;27.40;;;;;;491866;240;922;-72
2021/04/24 07:09:52;;;;;;;;;;;22.20;27.40;;;;;;491881;240;956;-72
2021/04/24 07:11:53;;;;;;;;;;;22.10;27.40;;;;;;491848;240;1007;-72
2021/04/24 07:13:54;;;;;;;;;;;22.10;27.40;;;;;;491842;240;945;-72
2021/04/24 07:16:02;;;;;;;;;;;22.10;27.40;;;;;;491800;240;1357;-72
2021/04/24 07:17:58;;;;;;;;;;;22.10;27.40;;;;;;491812;242;1421;-72
2021/04/24 07:20:00;;;;;;;;;;;22.10;27.40;;;;;;491824;240;959;-72
2021/04/24 07:22:01;;;;;;;;;;;22.10;27.60;;;;;;491781;240;983;-72
2021/04/24 07:24:02;;;;;;;;;;;22.10;27.50;;;;;;491863;240;954;-73
2021/04/24 07:26:03;;;;;;;;;;;22.10;27.60;;;;;;491880;240;2180;-73
2021/04/24 07:28:05;;;;;;;;;;;22.10;27.60;;;;;;491880;240;982;-73
2021/04/24 07:30:06;;;;;;;;;;;22.10;27.60;;;;;;491843;240;933;-73
2021/04/24 07:32:07;;;;;;;;;;;22.00;27.60;;;;;;491878;240;1179;-72
2021/04/24 07:34:10;;;;;;;;;;;22.00;27.60;;;;;;491904;240;1004;-72
2021/04/24 07:36:10;;;;;;;;;;;22.10;27.60;;;;;;491776;242;1405;-72
2021/04/24 07:38:11;;;;;;;;;;;22.00;27.70;;;;;;491919;240;1239;-72
2021/04/24 07:40:13;;;;;;;;;;;22.10;27.70;;;;;;491772;240;990;-72
2021/04/24 07:42:15;;;;;;;;;;;22.10;27.70;;;;;;491818;240;936;-72
2021/04/24 07:44:17;;;;;;;;;;;22.10;27.70;;;;;;491898;240;1135;-72
2021/04/24 07:46:17;;;;;;;;;;;22.10;27.70;;;;;;491766;240;2112;-72
2021/04/24 07:48:18;;;;;;;;;;;22.10;27.80;;;;;;491831;240;1031;-72
2021/04/24 07:50:20;;;;;;;;;;;22.10;27.80;;;;;;491877;240;1016;-72
2021/04/24 07:52:21;;;;;;;;;;;22.10;27.80;;;;;;491856;240;1120;-73
2021/04/24 07:54:22;;;;;;;;;;;22.10;27.80;;;;;;491820;240;1189;-73
2021/04/24 07:56:24;;;;;;;;;;;22.10;27.90;;;;;;491808;240;1068;-72
2021/04/24 07:58:25;;;;;;;;;;;22.10;27.90;;;;;;491895;240;1111;-72
2021/04/24 08:00:26;;;;;;;;;;;22.10;27.90;;;;;;491878;240;1135;-72
2021/04/24 08:02:27;;;;;;;;;;;22.10;27.90;;;;;;491821;240;1170;-73
2021/04/24 08:04:29;;;;;;;;;;;22.00;28.00;;;;;;491817;240;1221;-73
2021/04/24 08:06:30;;;;;;;;;;;22.00;28.00;;;;;;491797;240;2167;-73
2021/04/24 08:08:31;;;;;;;;;;;22.00;28.10;;;;;;491857;240;1011;-73
2021/04/24 08:10:33;;;;;;;;;;;22.00;28.20;;;;;;491814;240;946;-73
2021/04/24 08:12:34;;;;;;;;;;;22.00;28.20;;;;;;491875;240;986;-72
2021/04/24 08:14:35;;;;;;;;;;;22.10;28.30;;;;;;491821;240;1056;-72
2021/04/24 08:16:36;;;;;;;;;;;22.00;28.20;;;;;;491743;240;1150;-73
2021/04/24 08:18:38;;;;;;;;;;;22.10;28.20;;;;;;491912;240;931;-73
2021/04/24 08:20:39;;;;;;;;;;;22.00;28.20;;;;;;491766;240;1218;-72
2021/04/24 08:22:40;;;;;;;;;;;22.10;28.20;;;;;;491776;240;1167;-72
2021/04/24 08:24:41;;;;;;;;;;;22.00;28.20;;;;;;491760;240;2188;-72
2021/04/24 08:26:43;;;;;;;;;;;22.10;28.20;;;;;;491724;240;1201;-74
2021/04/24 08:28:44;;;;;;;;;;;22.10;28.20;;;;;;491801;240;1029;-72
2021/04/24 08:30:46;;;;;;;;;;;22.10;28.20;;;;;;491776;240;1227;-72
2021/04/24 08:32:47;;;;;;;;;;;22.00;28.20;;;;;;491862;240;1182;-72
2021/04/24 08:34:48;;;;;;;;;;;22.00;28.20;;;;;;491745;240;1047;-72
2021/04/24 08:36:50;;;;;;;;;;;22.00;28.20;;;;;;491674;240;1299;-73
2021/04/24 08:38:51;;;;;;;;;;;22.10;28.10;;;;;;491894;240;955;-73
2021/04/24 08:40:52;;;;;;;;;;;22.10;28.10;;;;;;491709;240;1550;-72
2021/04/24 08:42:53;;;;;;;;;;;22.10;28.10;;;;;;491806;240;1076;-72
2021/04/24 08:44:55;;;;;;;;;;;22.20;28.10;;;;;;491720;240;2195;-73
2021/04/24 08:46:56;;;;;;;;;;;22.10;28.10;;;;;;491648;240;1225;-73
2021/04/24 08:48:57;;;;;;;;;;;22.10;28.10;;;;;;491770;240;1021;-72
2021/04/24 08:50:59;;;;;;;;;;;22.10;28.10;;;;;;491688;240;1390;-72
2021/04/24 08:53:01;;;;;;;;;;;22.20;28.10;;;;;;491731;240;1076;-72
2021/04/24 08:55:01;;;;;;;;;;;22.20;28.00;;;;;;491787;240;1629;-72
2021/04/24 08:57:02;;;;;;;;;;;22.10;28.00;;;;;;491733;240;1207;-72
2021/04/24 08:59:04;;;;;;;;;;;22.10;28.00;;;;;;491810;240;1026;-73
2021/04/24 09:01:05;;;;;;;;;;;22.10;28.10;;;;;;491724;240;1229;-73
2021/04/24 09:03:06;;;;;;;;;;;22.10;28.00;;;;;;491759;240;1162;-73
2021/04/24 09:05:08;;;;;;;;;;;22.10;28.00;;;;;;491734;240;2187;-73
2021/04/24 09:07:09;;;;;;;;;;;22.10;28.10;;;;;;491793;240;999;-73
2021/04/24 09:09:10;;;;;;;;;;;22.10;28.10;;;;;;491803;240;1039;-72
2021/04/24 09:11:11;;;;;;;;;;;22.00;28.10;;;;;;491745;240;950;-72
2021/04/24 09:13:13;;;;;;;;;;;22.10;28.10;;;;;;491801;240;1022;-72
2021/04/24 09:15:14;;;;;;;;;;;22.10;28.10;;;;;;491793;240;955;-72
2021/04/24 09:17:15;;;;;;;;;;;22.10;28.10;;;;;;491680;240;1174;-72
2021/04/24 09:19:16;;;;;;;;;;;22.10;28.00;;;;;;491810;240;927;-73
2021/04/24 09:21:18;;;;;;;;;;;22.20;27.80;;;;;;491758;240;959;-73
2021/04/24 09:23:19;;;;;;;;;;;22.10;27.90;;;;;;491876;240;969;-73
2021/04/24 09:25:20;;;;;;;;;;;22.20;27.80;;;;;;491722;240;2184;-73
2021/04/24 09:27:22;;;;;;;;;;;22.10;27.80;;;;;;491798;240;1021;-73
2021/04/24 09:29:23;;;;;;;;;;;22.10;27.70;;;;;;491761;240;952;-72
2021/04/24 09:31:24;;;;;;;;;;;22.10;27.80;;;;;;491783;240;964;-72
2021/04/24 09:33:25;;;;;;;;;;;22.20;27.80;;;;;;491784;240;1187;-72
2021/04/24 09:35:27;;;;;;;;;;;22.20;27.80;;;;;;491652;240;1182;-72
2021/04/24 09:37:28;;;;;;;;;;;22.20;27.60;;;;;;491725;240;1075;-73
2021/04/24 09:39:29;;;;;;;;;;;22.20;27.60;;;;;;491778;240;1087;-73
2021/04/24 09:41:34;;;;;;;;;;;22.20;27.50;;;;;;491759;240;948;-73
2021/04/24 09:43:32;;;;;;;;;;;22.20;27.50;;;;;;491750;242;1437;-73
2021/04/24 09:45:34;;;;;;;;;;;22.10;27.50;;;;;;491708;240;2120;-73
2021/04/24 09:47:35;;;;;;;;;;;22.20;27.60;;;;;;491751;240;1274;-73
2021/04/24 09:49:36;;;;;;;;;;;22.20;27.50;;;;;;491833;240;1018;-73
2021/04/24 09:51:37;;;;;;;;;;;22.20;27.40;;;;;;491769;240;1107;-73
2021/04/24 09:53:39;;;;;;;;;;;22.10;27.40;;;;;;491786;240;1396;-73
2021/04/24 09:55:40;;;;;;;;;;;22.10;27.50;;;;;;491723;240;935;-72
2021/04/24 09:57:41;;;;;;;;;;;22.20;27.40;;;;;;491729;240;1098;-72
2021/04/24 09:59:42;;;;;;;;;;;22.20;27.40;;;;;;491788;240;969;-73
2021/04/24 10:01:44;;;;;;;;;;;22.10;27.30;;;;;;491786;240;1129;-73
2021/04/24 10:03:45;;;;;;;;;;;22.10;27.30;;;;;;491752;240;1189;-73
2021/04/24 10:05:46;;;;;;;;;;;22.20;27.30;;;;;;491693;240;2187;-73
2021/04/24 10:07:48;;;;;;;;;;;22.20;27.20;;;;;;491786;240;1072;-72
2021/04/24 10:09:49;;;;;;;;;;;22.20;27.20;;;;;;491745;240;1026;-73
2021/04/24 10:11:50;;;;;;;;;;;22.30;27.20;;;;;;491664;240;1167;-73
2021/04/24 10:13:51;;;;;;;;;;;22.20;27.10;;;;;;491802;240;1011;-73
2021/04/24 10:15:53;;;;;;;;;;;22.20;27.10;;;;;;491771;240;974;-73
2021/04/24 10:17:54;;;;;;;;;;;22.20;27.10;;;;;;491692;240;1156;-73
2021/04/24 10:19:55;;;;;;;;;;;22.20;27.10;;;;;;491750;240;980;-73
2021/04/24 10:21:56;;;;;;;;;;;22.20;27.10;;;;;;491739;240;1037;-73
2021/04/24 10:23:58;;;;;;;;;;;22.20;27.10;;;;;;491794;240;936;-73
2021/04/24 10:25:59;;;;;;;;;;;22.20;27.00;;;;;;491789;240;2133;-73
2021/04/24 10:28:00;;;;;;;;;;;22.20;27.00;;;;;;491816;240;1008;-72
2021/04/24 10:30:02;;;;;;;;;;;22.20;27.00;;;;;;491739;240;963;-73
2021/04/24 10:32:03;;;;;;;;;;;22.20;27.00;;;;;;491782;240;982;-73
2021/04/24 10:34:05;;;;;;;;;;;22.30;26.90;;;;;;491773;240;1214;-73
2021/04/24 10:36:06;;;;;;;;;;;22.40;26.80;;;;;;491724;240;1060;-73
2021/04/24 10:38:07;;;;;;;;;;;22.40;26.70;;;;;;491819;240;1268;-73
2021/04/24 10:40:09;;;;;;;;;;;22.40;26.70;;;;;;491773;240;966;-73
2021/04/24 10:42:10;;;;;;;;;;;22.50;26.70;;;;;;491814;240;1408;-72
2021/04/24 10:44:11;;;;;;;;;;;22.40;26.60;;;;;;491863;240;1008;-73
2021/04/24 10:46:13;;;;;;;;;;;22.40;26.60;;;;;;491772;240;2138;-73
2021/04/24 10:48:14;;;;;;;;;;;22.40;26.60;;;;;;491901;240;1163;-72
2021/04/24 10:50:15;;;;;;;;;;;22.40;26.50;;;;;;491760;240;940;-72
2021/04/24 10:52:16;;;;;;;;;;;22.40;26.60;;;;;;491735;240;1025;-73
2021/04/24 10:54:18;;;;;;;;;;;22.40;26.60;;;;;;491753;240;991;-73
2021/04/24 10:56:19;;;;;;;;;;;22.30;26.60;;;;;;491759;240;1020;-72
2021/04/24 10:58:20;;;;;;;;;;;22.40;26.50;;;;;;491941;240;949;-73
2021/04/24 11:00:22;;;;;;;;;;;22.40;26.50;;;;;;491840;240;1076;-73
2021/04/24 11:02:23;;;;;;;;;;;22.40;26.50;;;;;;491849;240;1002;-73
2021/04/24 11:04:24;;;;;;;;;;;22.40;26.40;;;;;;491840;240;1179;-73
2021/04/24 11:06:25;;;;;;;;;;;22.40;26.40;;;;;;491847;240;2136;-72
2021/04/24 11:08:27;;;;;;;;;;;22.40;26.40;;;;;;491841;240;942;-72
2021/04/24 11:10:28;;;;;;;;;;;22.40;26.40;;;;;;491773;240;1122;-72
2021/04/24 11:12:29;;;;;;;;;;;22.40;26.30;;;;;;491777;240;953;-72
2021/04/24 11:14:31;;;;;;;;;;;22.40;26.30;;;;;;491889;240;985;-72
2021/04/24 11:16:32;;;;;;;;;;;22.40;26.20;;;;;;491713;240;1189;-72
2021/04/24 11:18:33;;;;;;;;;;;22.30;26.20;;;;;;491826;240;1160;-73
2021/04/24 11:20:34;;;;;;;;;;;22.30;26.10;;;;;;491800;240;1028;-73
2021/04/24 11:22:36;;;;;;;;;;;22.40;26.10;;;;;;491821;240;1198;-73
2021/04/24 11:24:37;;;;;;;;;;;22.40;26.10;;;;;;491849;240;943;-73
2021/04/24 11:26:38;;;;;;;;;;;22.40;26.00;;;;;;491792;240;2180;-73
2021/04/24 11:28:40;;;;;;;;;;;22.40;25.90;;;;;;491793;240;1105;-73
2021/04/24 11:30:41;;;;;;;;;;;22.40;25.90;;;;;;491779;240;1105;-73
2021/04/24 11:32:43;;;;;;;;;;;22.40;25.90;;;;;;491788;240;963;-73
2021/04/24 11:34:44;;;;;;;;;;;22.30;25.80;;;;;;491754;240;1226;-73
2021/04/24 11:36:45;;;;;;;;;;;22.30;25.90;;;;;;491791;240;985;-73
2021/04/24 11:38:46;;;;;;;;;;;22.40;25.90;;;;;;491823;240;962;-73
2021/04/24 11:40:48;;;;;;;;;;;22.30;25.90;;;;;;491771;240;1319;-73
2021/04/24 11:42:49;;;;;;;;;;;22.30;25.90;;;;;;491834;240;1112;-73
2021/04/24 11:44:51;;;;;;;;;;;22.30;25.80;;;;;;491824;240;926;-73
2021/04/24 11:46:52;;;;;;;;;;;22.30;25.80;;;;;;491735;240;2177;-73
2021/04/24 11:48:53;;;;;;;;;;;22.30;25.80;;;;;;491840;240;1209;-73
2021/04/24 11:50:55;;;;;;;;;;;22.40;25.80;;;;;;491741;240;1114;-73
2021/04/24 11:52:56;;;;;;;;;;;22.30;25.90;;;;;;491842;240;1096;-73
2021/04/24 11:54:57;;;;;;;;;;;22.20;25.80;;;;;;491867;240;937;-73
2021/04/24 11:56:59;;;;;;;;;;;22.30;25.80;;;;;;491720;240;1487;-73
2021/04/24 11:59:00;;;;;;;;;;;22.30;25.80;;;;;;491812;240;980;-73